Time,TemperatureF,DewpointF,PressureIn,WindDirection,WindDirectionDegrees,WindSpeedMPH,WindSpeedGustMPH,Humidity,HourlyPrecipIn,Conditions,Clouds,dailyrainin,SoftwareType,DateUTC
2013-10-05 00:01:00,26.8,19.6,29.98,SSW,202,0.0,-999.0,74,-99.99,,,0.00,Acu-Link.com,2013-10-05 06:01:00,
2013-10-05 00:16:00,26.2,19.4,29.99,NNW,337,0.0,-999.0,75,-99.99,,,0.00,Acu-Link.com,2013-10-05 06:16:00,
2013-10-05 00:32:00,26.1,19.9,29.99,NE,45,3.7,-999.0,77,-99.99,,,0.00,Acu-Link.com,2013-10-05 06:32:00,
2013-10-05 00:47:00,25.7,20.4,30.00,East,90,1.7,-999.0,80,-99.99,,,0.00,Acu-Link.com,2013-10-05 06:47:00,
2013-10-05 01:04:00,25.3,19.7,29.99,South,180,0.0,-999.0,79,-99.99,,,0.00,Acu-Link.com,2013-10-05 07:04:00,
2013-10-05 01:19:00,24.8,19.8,29.99,SW,225,0.0,-999.0,81,-99.99,,,0.00,Acu-Link.com,2013-10-05 07:19:00,
2013-10-05 01:34:00,24.1,20.0,30.00,SW,225,2.2,-999.0,84,-99.99,,,0.00,Acu-Link.com,2013-10-05 07:34:00,
2013-10-05 01:49:00,23.7,19.3,29.99,West,270,1.7,-999.0,83,-99.99,,,0.00,Acu-Link.com,2013-10-05 07:49:00,
2013-10-05 02:04:00,23.0,19.4,29.99,WSW,247,0.0,-999.0,86,-99.99,,,0.00,Acu-Link.com,2013-10-05 08:04:00,
2013-10-05 02:19:00,22.5,19.5,29.99,SSE,157,0.0,-999.0,88,-99.99,,,0.00,Acu-Link.com,2013-10-05 08:19:00,
2013-10-05 02:35:00,21.0,17.5,30.00,NW,315,0.0,-999.0,86,-99.99,,,0.00,Acu-Link.com,2013-10-05 08:35:00,
2013-10-05 02:50:00,20.1,16.6,29.99,East,90,0.0,-999.0,86,-99.99,,,0.00,Acu-Link.com,2013-10-05 08:50:00,
2013-10-05 03:05:00,19.8,16.8,30.00,NE,45,0.0,-999.0,88,-99.99,,,0.00,Acu-Link.com,2013-10-05 09:05:00,
2013-10-05 03:21:00,19.4,17.0,30.00,NNE,22,0.0,-999.0,90,-99.99,,,0.00,Acu-Link.com,2013-10-05 09:21:00,
2013-10-05 03:36:00,20.1,18.2,30.01,NNE,22,4.2,-999.0,92,-99.99,,,0.00,Acu-Link.com,2013-10-05 09:36:00,
2013-10-05 03:51:00,20.8,17.8,30.01,North,0,2.7,-999.0,88,-99.99,,,0.00,Acu-Link.com,2013-10-05 09:51:00,
2013-10-05 04:06:00,21.4,18.4,30.00,South,180,0.0,-999.0,88,-99.99,,,0.00,Acu-Link.com,2013-10-05 10:06:00,
2013-10-05 04:21:00,21.4,18.4,30.00,ESE,112,0.0,-999.0,88,-99.99,,,0.00,Acu-Link.com,2013-10-05 10:21:00,
2013-10-05 04:36:00,22.1,20.1,30.00,SSE,157,1.7,-999.0,92,-99.99,,,0.00,Acu-Link.com,2013-10-05 10:36:00,
2013-10-05 04:51:00,22.1,18.6,30.01,NE,45,0.0,-999.0,86,-99.99,,,0.00,Acu-Link.com,2013-10-05 10:51:00,
2013-10-05 05:06:00,19.9,16.7,30.02,West,270,0.0,-999.0,87,-99.99,,,0.00,Acu-Link.com,2013-10-05 11:06:00,
2013-10-05 05:21:00,18.9,16.5,30.02,NW,315,0.0,-999.0,90,-99.99,,,0.00,Acu-Link.com,2013-10-05 11:21:00,
2013-10-05 05:37:00,18.7,18.2,30.03,West,270,0.0,-999.0,98,-99.99,,,0.00,Acu-Link.com,2013-10-05 11:37:00,
2013-10-05 05:52:00,18.1,17.6,30.03,NW,315,0.0,-999.0,98,-99.99,,,0.00,Acu-Link.com,2013-10-05 11:52:00,
2013-10-05 06:07:00,18.0,17.5,30.03,NNE,22,0.0,-999.0,98,-99.99,,,0.00,Acu-Link.com,2013-10-05 12:07:00,
2013-10-05 06:22:00,17.8,17.3,30.03,NW,315,0.0,-999.0,98,-99.99,,,0.00,Acu-Link.com,2013-10-05 12:22:00,
2013-10-05 06:37:00,18.0,17.5,30.03,SSW,202,0.0,-999.0,98,-99.99,,,0.00,Acu-Link.com,2013-10-05 12:37:00,
2013-10-05 06:52:00,17.8,17.3,30.03,North,0,0.0,-999.0,98,-99.99,,,0.00,Acu-Link.com,2013-10-05 12:52:00,
2013-10-05 07:08:00,17.8,17.3,30.04,WSW,247,0.0,-999.0,98,-99.99,,,0.00,Acu-Link.com,2013-10-05 13:08:00,
2013-10-05 07:23:00,17.8,17.3,30.04,West,270,0.0,-999.0,98,-99.99,,,0.00,Acu-Link.com,2013-10-05 13:23:00,
2013-10-05 07:38:00,23.9,23.4,30.06,ENE,67,0.0,-999.0,98,-99.99,,,0.00,Acu-Link.com,2013-10-05 13:38:00,
2013-10-05 07:54:00,27.7,25.9,30.06,ESE,112,0.0,-999.0,93,-99.99,,,0.00,Acu-Link.com,2013-10-05 13:54:00,
2013-10-05 08:09:00,34.7,27.6,30.06,East,90,0.0,-999.0,75,-99.99,,,0.00,Acu-Link.com,2013-10-05 14:09:00,
2013-10-05 08:24:00,38.3,28.7,30.06,SSW,202,0.0,-999.0,68,-99.99,,,0.00,Acu-Link.com,2013-10-05 14:24:00,
2013-10-05 08:40:00,31.3,24.0,30.06,WSW,247,0.0,-999.0,74,-99.99,,,0.00,Acu-Link.com,2013-10-05 14:40:00,
2013-10-05 08:55:00,31.6,23.6,30.07,ESE,112,1.7,-999.0,72,-99.99,,,0.00,Acu-Link.com,2013-10-05 14:55:00,
2013-10-05 09:10:00,34.3,26.2,30.07,NNW,337,2.2,-999.0,72,-99.99,,,0.00,Acu-Link.com,2013-10-05 15:10:00,
2013-10-05 09:25:00,35.2,27.1,30.07,SSW,202,4.2,-999.0,72,-99.99,,,0.00,Acu-Link.com,2013-10-05 15:25:00,
2013-10-05 09:41:00,37.2,26.9,30.07,SSW,202,1.7,-999.0,66,-99.99,,,0.00,Acu-Link.com,2013-10-05 15:41:00,
2013-10-05 09:56:00,37.8,25.6,30.07,South,180,4.2,-999.0,61,-99.99,,,0.00,Acu-Link.com,2013-10-05 15:56:00,
2013-10-05 10:11:00,37.0,24.4,30.07,West,270,1.7,-999.0,60,-99.99,,,0.00,Acu-Link.com,2013-10-05 16:11:00,
2013-10-05 10:26:00,40.1,27.3,30.07,SSW,202,3.7,-999.0,60,-99.99,,,0.00,Acu-Link.com,2013-10-05 16:26:00,
2013-10-05 10:42:00,41.2,27.6,30.07,SW,225,3.7,-999.0,58,-99.99,,,0.00,Acu-Link.com,2013-10-05 16:42:00,
2013-10-05 10:57:00,41.5,27.8,30.07,South,180,6.8,-999.0,58,-99.99,,,0.00,Acu-Link.com,2013-10-05 16:57:00,
2013-10-05 11:12:00,42.4,28.3,30.07,SE,135,2.2,-999.0,57,-99.99,,,0.00,Acu-Link.com,2013-10-05 17:12:00,
2013-10-05 11:28:00,43.2,29.4,30.06,West,270,4.7,-999.0,58,-99.99,,,0.00,Acu-Link.com,2013-10-05 17:28:00,
2013-10-05 11:43:00,45.3,30.1,30.05,West,270,6.3,-999.0,55,-99.99,,,0.00,Acu-Link.com,2013-10-05 17:43:00,
2013-10-05 11:58:00,45.7,29.6,30.06,SW,225,5.8,-999.0,53,-99.99,,,0.00,Acu-Link.com,2013-10-05 17:58:00,
2013-10-05 12:13:00,46.6,30.9,30.05,SSE,157,6.3,-999.0,54,-99.99,,,0.00,Acu-Link.com,2013-10-05 18:13:00,
2013-10-05 12:28:00,46.8,29.6,30.05,West,270,5.8,-999.0,51,-99.99,,,0.00,Acu-Link.com,2013-10-05 18:28:00,
2013-10-05 12:44:00,48.7,31.4,30.04,SSW,202,5.3,-999.0,51,-99.99,,,0.00,Acu-Link.com,2013-10-05 18:44:00,
2013-10-05 12:59:00,49.1,30.8,30.04,West,270,3.2,-999.0,49,-99.99,,,0.00,Acu-Link.com,2013-10-05 18:59:00,
2013-10-05 13:14:00,48.7,30.9,30.03,ESE,112,7.8,-999.0,50,-99.99,,,0.00,Acu-Link.com,2013-10-05 19:14:00,
2013-10-05 13:29:00,48.7,29.9,30.02,SSW,202,14.0,-999.0,48,-99.99,,,0.00,Acu-Link.com,2013-10-05 19:29:00,
2013-10-05 13:44:00,50.0,31.1,30.02,SW,225,7.8,-999.0,48,-99.99,,,0.00,Acu-Link.com,2013-10-05 19:44:00,
2013-10-05 13:59:00,50.4,30.9,30.00,SW,225,6.8,-999.0,47,-99.99,,,0.00,Acu-Link.com,2013-10-05 19:59:00,
2013-10-05 14:14:00,51.8,32.2,29.99,SSW,202,5.3,-999.0,47,-99.99,,,0.00,Acu-Link.com,2013-10-05 20:14:00,
2013-10-05 14:30:00,51.6,32.0,29.98,SW,225,9.9,-999.0,47,-99.99,,,0.00,Acu-Link.com,2013-10-05 20:30:00,
2013-10-05 14:45:00,51.6,31.5,29.98,NNE,22,6.3,-999.0,46,-99.99,,,0.00,Acu-Link.com,2013-10-05 20:45:00,
2013-10-05 15:00:00,51.8,31.7,29.97,SW,225,9.4,-999.0,46,-99.99,,,0.00,Acu-Link.com,2013-10-05 21:00:00,
2013-10-05 15:15:00,52.2,29.8,29.97,NNE,22,7.3,-999.0,42,-99.99,,,0.00,Acu-Link.com,2013-10-05 21:15:00,
2013-10-05 15:31:00,52.3,29.3,29.96,SSW,202,4.7,-999.0,41,-99.99,,,0.00,Acu-Link.com,2013-10-05 21:31:00,
2013-10-05 15:46:00,52.3,28.7,29.96,West,270,6.3,-999.0,40,-99.99,,,0.00,Acu-Link.com,2013-10-05 21:46:00,
2013-10-05 16:01:00,50.5,28.3,29.97,SW,225,4.7,-999.0,42,-99.99,,,0.00,Acu-Link.com,2013-10-05 22:01:00,
2013-10-05 16:16:00,50.2,29.1,29.98,SSW,202,6.8,-999.0,44,-99.99,,,0.00,Acu-Link.com,2013-10-05 22:16:00,
2013-10-05 16:31:00,49.5,30.6,29.99,SSW,202,10.4,-999.0,48,-99.99,,,0.00,Acu-Link.com,2013-10-05 22:31:00,
2013-10-05 16:46:00,48.7,28.3,29.97,SSE,157,4.2,-999.0,45,-99.99,,,0.00,Acu-Link.com,2013-10-05 22:46:00,
2013-10-05 17:01:00,48.2,28.4,29.97,SW,225,4.2,-999.0,46,-99.99,,,0.00,Acu-Link.com,2013-10-05 23:01:00,
2013-10-05 17:17:00,47.5,29.8,29.99,SW,225,3.2,-999.0,50,-99.99,,,0.00,Acu-Link.com,2013-10-05 23:17:00,
2013-10-05 17:32:00,46.6,29.5,29.99,West,270,4.7,-999.0,51,-99.99,,,0.00,Acu-Link.com,2013-10-05 23:32:00,
2013-10-05 17:47:00,45.7,28.1,30.00,NNE,22,2.2,-999.0,50,-99.99,,,0.00,Acu-Link.com,2013-10-05 23:47:00,
2013-10-05 18:03:00,44.4,28.4,30.00,SE,135,1.7,-999.0,53,-99.99,,,0.00,Acu-Link.com,2013-10-06 00:03:00,
2013-10-05 18:18:00,43.3,26.4,30.01,SW,225,3.2,-999.0,51,-99.99,,,0.00,Acu-Link.com,2013-10-06 00:18:00,
2013-10-05 18:33:00,41.7,25.4,30.03,SSE,157,0.0,-999.0,52,-99.99,,,0.00,Acu-Link.com,2013-10-06 00:33:00,
2013-10-05 18:49:00,40.3,25.9,30.03,South,180,2.7,-999.0,56,-99.99,,,0.00,Acu-Link.com,2013-10-06 00:49:00,
2013-10-05 19:04:00,38.5,26.6,30.05,SSW,202,1.7,-999.0,62,-99.99,,,0.00,Acu-Link.com,2013-10-06 01:04:00,
2013-10-05 19:19:00,37.2,27.3,30.06,West,270,1.7,-999.0,67,-99.99,,,0.00,Acu-Link.com,2013-10-06 01:19:00,
2013-10-05 19:34:00,35.6,26.5,30.08,NE,45,2.7,-999.0,69,-99.99,,,0.00,Acu-Link.com,2013-10-06 01:34:00,
2013-10-05 19:50:00,34.9,25.8,30.07,WNW,292,1.7,-999.0,69,-99.99,,,0.00,Acu-Link.com,2013-10-06 01:50:00,
2013-10-05 20:05:00,32.5,25.5,30.08,SSW,202,2.2,-999.0,75,-99.99,,,0.00,Acu-Link.com,2013-10-06 02:05:00,
2013-10-05 20:20:00,32.2,25.8,30.08,South,180,1.1,-999.0,77,-99.99,,,0.00,Acu-Link.com,2013-10-06 02:20:00,
2013-10-05 20:36:00,32.0,26.2,30.08,SSW,202,0.0,-999.0,79,-99.99,,,0.00,Acu-Link.com,2013-10-06 02:36:00,
2013-10-05 20:51:00,30.7,24.4,30.09,SE,135,0.0,-999.0,77,-99.99,,,0.00,Acu-Link.com,2013-10-06 02:51:00,
2013-10-05 21:06:00,30.0,24.3,30.10,NNW,337,0.0,-999.0,79,-99.99,,,0.00,Acu-Link.com,2013-10-06 03:06:00,
2013-10-05 21:21:00,29.7,24.6,30.12,NW,315,0.0,-999.0,81,-99.99,,,0.00,Acu-Link.com,2013-10-06 03:21:00,
2013-10-05 21:37:00,29.1,24.3,30.11,WNW,292,0.0,-999.0,82,-99.99,,,0.00,Acu-Link.com,2013-10-06 03:37:00,
2013-10-05 21:52:00,30.9,25.5,30.11,SW,225,4.2,-999.0,80,-99.99,,,0.00,Acu-Link.com,2013-10-06 03:52:00,
2013-10-05 22:07:00,31.5,25.4,30.10,South,180,4.2,-999.0,78,-99.99,,,0.00,Acu-Link.com,2013-10-06 04:07:00,
2013-10-05 22:22:00,31.1,25.1,30.12,South,180,3.2,-999.0,78,-99.99,,,0.00,Acu-Link.com,2013-10-06 04:22:00,
2013-10-05 22:37:00,29.3,23.9,30.11,WNW,292,0.0,-999.0,80,-99.99,,,0.00,Acu-Link.com,2013-10-06 04:37:00,
2013-10-05 22:52:00,29.3,24.8,30.11,North,0,0.0,-999.0,83,-99.99,,,0.00,Acu-Link.com,2013-10-06 04:52:00,
2013-10-05 23:08:00,27.7,22.6,30.11,NNE,22,0.0,-999.0,81,-99.99,,,0.00,Acu-Link.com,2013-10-06 05:08:00,
2013-10-05 23:24:00,26.4,22.2,30.11,North,0,0.0,-999.0,84,-99.99,,,0.00,Acu-Link.com,2013-10-06 05:24:00,
2013-10-05 23:39:00,25.9,21.7,30.13,ESE,112,0.0,-999.0,84,-99.99,,,0.00,Acu-Link.com,2013-10-06 05:39:00,
2013-10-05 23:54:00,24.3,20.5,30.12,SSW,202,0.0,-999.0,85,-99.99,,,0.00,Acu-Link.com,2013-10-06 05:54:00,